createdAt,value
2019-03-08T00:00:07.463Z,5.96
2019-03-08T00:02:40.841Z,5.88
2019-03-08T00:05:12.628Z,5.96
2019-03-08T00:07:44.328Z,6.03
2019-03-08T00:10:16.180Z,5.97
2019-03-08T00:12:48.010Z,6.03
2019-03-08T00:15:19.873Z,6.11
2019-03-08T00:17:51.711Z,6.14
2019-03-08T00:20:23.495Z,6.11
2019-03-08T00:22:55.198Z,6.03
2019-03-08T00:25:28.040Z,6.05
2019-03-08T00:27:59.907Z,6.09
2019-03-08T00:30:32.025Z,6.09
2019-03-08T00:33:03.818Z,6.06
2019-03-08T00:35:35.521Z,6.11
2019-03-08T00:38:07.543Z,6.15
2019-03-08T00:40:39.581Z,6.03
2019-03-08T00:43:11.272Z,5.99
2019-03-08T00:45:42.978Z,5.90
2019-03-08T00:48:14.760Z,5.94
2019-03-08T00:50:46.576Z,5.86
2019-03-08T00:53:18.314Z,5.79
2019-03-08T00:55:50.099Z,5.90
2019-03-08T00:58:21.795Z,5.97
2019-03-08T01:00:53.553Z,6.01
2019-03-08T01:03:25.242Z,5.92
2019-03-08T01:05:58.244Z,6.03
2019-03-08T01:08:30.122Z,5.94
2019-03-08T01:11:01.832Z,6.03
2019-03-08T01:13:33.546Z,6.02
2019-03-08T01:16:05.407Z,5.81
2019-03-08T01:18:37.175Z,5.95
2019-03-08T01:21:09.048Z,5.95
2019-03-08T01:23:41.092Z,5.93
2019-03-08T01:26:13.132Z,5.91
2019-03-08T01:28:44.901Z,6.00
2019-03-08T01:31:16.696Z,5.94
2019-03-08T01:33:48.468Z,5.87
2019-03-08T01:36:20.357Z,5.82
2019-03-08T01:38:52.134Z,5.75
2019-03-08T01:41:23.943Z,5.84
2019-03-08T01:43:55.632Z,5.68
2019-03-08T01:46:27.355Z,5.77
2019-03-08T01:48:59.095Z,5.79
2019-03-08T01:51:30.810Z,5.81
2019-03-08T01:54:02.765Z,5.73
2019-03-08T01:56:34.474Z,5.65
2019-03-08T01:59:06.316Z,5.68
2019-03-08T02:01:38.175Z,5.55
2019-03-08T02:04:11.477Z,5.63
2019-03-08T02:06:43.254Z,5.61
2019-03-08T02:09:15.355Z,5.64
2019-03-08T02:11:47.069Z,5.59
2019-03-08T02:14:18.786Z,5.51
2019-03-08T02:16:50.489Z,5.47
2019-03-08T02:19:22.199Z,5.39
2019-03-08T02:21:54.160Z,5.31
2019-03-08T02:24:25.886Z,5.43
2019-03-08T02:26:57.602Z,5.27
2019-03-08T02:29:29.308Z,5.00
2019-03-08T02:32:01.093Z,5.26
2019-03-08T02:34:32.788Z,5.29
2019-03-08T02:37:04.578Z,5.48
2019-03-08T02:39:36.715Z,5.40
2019-03-08T02:42:08.435Z,5.26
2019-03-08T02:44:40.211Z,5.43
2019-03-08T02:47:11.925Z,5.41
2019-03-08T02:49:44.664Z,5.27
2019-03-08T02:52:16.528Z,5.40
2019-03-08T02:54:48.231Z,5.20
2019-03-08T02:57:20.121Z,5.35
2019-03-08T02:59:52.141Z,5.30
2019-03-08T03:02:23.882Z,5.32
2019-03-08T03:04:55.577Z,5.22
2019-03-08T03:07:27.403Z,5.34
2019-03-08T03:09:59.191Z,5.07
2019-03-08T03:12:30.913Z,5.11
2019-03-08T03:15:02.605Z,5.34
2019-03-08T03:17:34.335Z,5.46
2019-03-08T03:20:07.396Z,5.30
2019-03-08T03:22:39.363Z,5.22
2019-03-08T03:25:12.215Z,5.43
2019-03-08T03:27:44.003Z,5.39
2019-03-08T03:30:16.138Z,5.28
2019-03-08T03:32:48.908Z,5.36
2019-03-08T03:35:20.861Z,5.40
2019-03-08T03:37:52.748Z,5.44
2019-03-08T03:40:24.582Z,5.40
2019-03-08T03:42:56.414Z,5.45
2019-03-08T03:45:28.174Z,5.51
2019-03-08T03:47:59.891Z,5.43
2019-03-08T03:50:31.595Z,5.44
2019-03-08T03:53:03.306Z,5.32
2019-03-08T03:55:35.078Z,5.37
2019-03-08T03:58:07.780Z,5.43
2019-03-08T04:00:40.169Z,5.27
2019-03-08T04:03:11.957Z,5.17
2019-03-08T04:05:43.702Z,5.19
2019-03-08T04:08:15.433Z,5.18
2019-03-08T04:10:47.199Z,5.21
2019-03-08T04:13:18.986Z,5.08
2019-03-08T04:15:50.762Z,5.01
2019-03-08T04:18:22.468Z,4.85
2019-03-08T04:20:54.161Z,4.83
2019-03-08T04:23:25.881Z,4.75
2019-03-08T04:25:57.581Z,4.87
2019-03-08T04:28:29.279Z,4.74
2019-03-08T04:31:01.107Z,4.73
2019-03-08T04:33:32.887Z,4.42
2019-03-08T04:36:04.658Z,4.76
2019-03-08T04:38:37.575Z,4.60
2019-03-08T04:41:09.282Z,4.62
2019-03-08T04:43:40.984Z,4.39
2019-03-08T04:46:12.674Z,4.41
2019-03-08T04:48:44.549Z,4.43
2019-03-08T04:51:16.486Z,4.45
2019-03-08T04:53:48.195Z,4.23
2019-03-08T04:56:19.880Z,4.34
2019-03-08T04:58:51.582Z,4.29
2019-03-08T05:01:23.350Z,4.40
2019-03-08T05:03:55.071Z,4.41
2019-03-08T05:06:26.936Z,4.34
2019-03-08T05:08:58.734Z,4.37
2019-03-08T05:11:30.503Z,4.33
2019-03-08T05:14:02.771Z,4.19
2019-03-08T05:16:34.471Z,4.10
2019-03-08T05:19:06.282Z,4.30
2019-03-08T05:21:38.225Z,3.99
2019-03-08T05:24:10.458Z,4.21
2019-03-08T05:26:43.213Z,4.22
2019-03-08T05:29:14.911Z,4.25
2019-03-08T05:31:46.845Z,4.24
2019-03-08T05:34:18.557Z,4.25
2019-03-08T05:36:50.337Z,4.27
2019-03-08T05:39:22.298Z,4.32
2019-03-08T05:41:54.308Z,4.34
2019-03-08T05:44:26.262Z,4.17
2019-03-08T05:46:57.977Z,4.35
2019-03-08T05:49:29.775Z,4.38
2019-03-08T05:52:01.450Z,4.24
2019-03-08T05:54:33.139Z,4.27
2019-03-08T05:57:04.840Z,4.25
2019-03-08T05:59:36.805Z,4.33
2019-03-08T06:02:08.863Z,4.31
2019-03-08T06:04:40.559Z,4.30
2019-03-08T06:07:12.504Z,4.30
2019-03-08T06:09:44.199Z,4.34
2019-03-08T06:12:16.703Z,4.26
2019-03-08T06:14:48.721Z,4.41
2019-03-08T06:17:20.741Z,4.33
2019-03-08T06:19:52.455Z,4.16
2019-03-08T06:22:24.160Z,4.41
2019-03-08T06:24:56.056Z,4.37
2019-03-08T06:27:27.762Z,4.42
2019-03-08T06:29:59.511Z,4.32
2019-03-08T06:32:31.203Z,4.41
2019-03-08T06:35:02.927Z,4.41
2019-03-08T06:37:34.677Z,4.40
2019-03-08T06:40:06.773Z,4.30
2019-03-08T06:42:38.473Z,4.43
2019-03-08T06:45:13.447Z,4.39
2019-03-08T06:47:45.539Z,4.36
2019-03-08T06:50:17.395Z,4.44
2019-03-08T06:52:49.167Z,4.45
2019-03-08T06:55:21.029Z,4.41
2019-03-08T06:58:00.574Z,4.49
2019-03-08T07:01:04.532Z,4.51
2019-03-08T07:03:36.225Z,4.45
2019-03-08T07:06:08.191Z,4.49
2019-03-08T07:08:40.123Z,4.54
2019-03-08T07:11:11.850Z,4.51
2019-03-08T07:13:43.790Z,4.45
2019-03-08T07:16:15.580Z,4.58
2019-03-08T07:18:47.553Z,4.60
2019-03-08T07:21:27.440Z,4.65
2019-03-08T07:24:04.680Z,4.78
2019-03-08T07:26:47.878Z,4.74
2019-03-08T07:29:37.517Z,4.93
2019-03-08T07:32:22.381Z,4.93
2019-03-08T07:35:22.266Z,4.98
2019-03-08T07:38:15.963Z,5.01
2019-03-08T07:41:10.594Z,5.06
2019-03-08T07:44:09.977Z,4.97
2019-03-08T07:47:15.537Z,4.92
2019-03-08T07:50:04.859Z,4.98
2019-03-08T07:52:58.268Z,5.01
2019-03-08T07:55:57.544Z,4.93
2019-03-08T07:58:57.953Z,5.10
2019-03-08T08:01:46.458Z,5.11
2019-03-08T08:04:25.938Z,5.05
2019-03-08T08:07:22.525Z,5.21
2019-03-08T08:10:13.298Z,5.35
2019-03-08T08:13:04.027Z,5.44
2019-03-08T08:16:06.909Z,5.57
2019-03-08T08:19:06.703Z,5.66
2019-03-08T08:22:03.450Z,5.74
2019-03-08T08:24:58.108Z,5.75
2019-03-08T08:27:40.023Z,5.62
2019-03-08T08:30:30.647Z,5.54
2019-03-08T08:33:17.961Z,5.60
2019-03-08T08:36:01.602Z,5.58
2019-03-08T08:38:58.668Z,5.57
2019-03-08T08:41:36.258Z,5.50
2019-03-08T08:44:21.387Z,5.58
2019-03-08T08:47:18.228Z,5.63
2019-03-08T08:50:07.155Z,5.67
2019-03-08T08:53:12.911Z,5.66
2019-03-08T08:56:06.418Z,5.70
2019-03-08T08:58:49.498Z,5.64
2019-03-08T09:01:38.588Z,5.77
2019-03-08T09:04:21.496Z,5.79
2019-03-08T09:07:02.887Z,5.90
2019-03-08T09:09:57.549Z,6.08
2019-03-08T09:12:38.875Z,6.12
2019-03-08T09:15:22.317Z,6.19
2019-03-08T09:18:02.605Z,6.35
2019-03-08T09:20:51.941Z,6.28
2019-03-08T09:23:45.444Z,6.20
2019-03-08T09:26:48.465Z,6.23
2019-03-08T09:29:41.202Z,6.38
2019-03-08T09:32:19.937Z,6.36
2019-03-08T09:35:16.360Z,6.45
2019-03-08T09:38:06.962Z,6.48
2019-03-08T09:41:09.633Z,6.39
2019-03-08T09:43:56.509Z,6.54
2019-03-08T09:46:35.578Z,6.70
2019-03-08T09:49:29.203Z,6.73
2019-03-08T09:52:23.087Z,6.85
2019-03-08T09:55:06.484Z,6.76
2019-03-08T09:58:12.337Z,6.63
2019-03-08T10:01:06.310Z,6.62
2019-03-08T10:03:46.836Z,6.75
2019-03-08T10:06:43.623Z,6.81
2019-03-08T10:09:34.242Z,6.82
2019-03-08T10:12:29.313Z,6.91
2019-03-08T10:15:28.876Z,7.00
2019-03-08T10:18:18.273Z,7.26
2019-03-08T10:21:28.105Z,7.44
2019-03-08T10:24:18.804Z,7.30
2019-03-08T10:27:14.491Z,7.21
2019-03-08T10:29:57.214Z,7.09
2019-03-08T10:32:42.097Z,7.10
2019-03-08T10:35:33.138Z,7.31
2019-03-08T10:38:23.828Z,7.40
2019-03-08T10:41:20.393Z,7.42
2019-03-08T10:44:11.260Z,7.23
2019-03-08T10:47:02.275Z,7.27
2019-03-08T10:50:11.942Z,7.26
2019-03-08T10:52:56.344Z,7.29
2019-03-08T10:55:41.017Z,7.40
2019-03-08T10:58:30.414Z,7.44
2019-03-08T11:01:21.043Z,7.38
2019-03-08T11:03:59.770Z,7.36
2019-03-08T11:06:55.105Z,7.41
2019-03-08T11:09:57.853Z,7.46
2019-03-08T11:12:42.006Z,7.39
2019-03-08T11:15:32.937Z,7.50
2019-03-08T11:18:22.323Z,7.76
2019-03-08T11:21:05.673Z,7.78
2019-03-08T11:23:54.923Z,7.75
2019-03-08T11:26:34.773Z,7.84
2019-03-08T11:29:32.294Z,7.92
2019-03-08T11:32:30.593Z,7.98
2019-03-08T11:35:28.058Z,8.14
2019-03-08T11:38:23.362Z,8.05
2019-03-08T11:41:23.139Z,8.09
2019-03-08T11:44:13.573Z,7.95
2019-03-08T11:46:53.753Z,7.95
2019-03-08T11:49:32.618Z,7.76
2019-03-08T11:52:29.152Z,7.54
2019-03-08T11:55:28.884Z,7.50
2019-03-08T11:58:09.747Z,7.46
2019-03-08T12:01:09.239Z,7.32
2019-03-08T12:03:50.631Z,7.36
2019-03-08T12:06:28.695Z,7.47
2019-03-08T12:09:24.058Z,7.41
2019-03-08T12:12:09.317Z,7.41
2019-03-08T12:15:03.242Z,7.54
2019-03-08T12:17:51.761Z,7.28
2019-03-08T12:20:32.874Z,7.32
2019-03-08T12:23:41.954Z,7.52
2019-03-08T12:26:35.778Z,7.28
2019-03-08T12:29:15.456Z,7.38
2019-03-08T12:32:09.312Z,7.31
2019-03-08T12:34:49.773Z,7.35
2019-03-08T12:37:46.464Z,7.21
2019-03-08T12:40:40.194Z,7.27
2019-03-08T12:43:29.764Z,7.02
2019-03-08T12:46:20.892Z,7.15
2019-03-08T12:49:11.785Z,7.09
2019-03-08T12:52:08.468Z,6.93
2019-03-08T12:54:47.725Z,6.99
2019-03-08T12:57:28.026Z,6.80
2019-03-08T13:00:10.229Z,7.03
2019-03-08T13:03:03.386Z,7.01
2019-03-08T13:05:43.978Z,7.06
2019-03-08T13:08:37.843Z,7.37
2019-03-08T13:11:09.780Z,7.71
2019-03-08T13:13:41.591Z,7.63
2019-03-08T13:16:13.429Z,7.78
2019-03-08T13:18:46.111Z,7.74
2019-03-08T13:21:17.880Z,7.87
2019-03-08T13:23:49.599Z,7.82
2019-03-08T13:26:21.381Z,7.88
2019-03-08T13:28:53.102Z,8.00
2019-03-08T13:31:25.243Z,7.87
2019-03-08T13:33:57.210Z,7.69
2019-03-08T13:36:29.171Z,7.70
2019-03-08T13:39:00.989Z,7.62
2019-03-08T13:41:34.531Z,7.59
2019-03-08T13:44:06.503Z,7.64
2019-03-08T13:46:38.267Z,7.65
2019-03-08T13:49:11.288Z,7.57
2019-03-08T13:51:43.242Z,6.12
2019-03-08T13:54:14.945Z,4.79
2019-03-08T13:56:46.887Z,4.35
2019-03-08T13:59:18.584Z,4.09
2019-03-08T14:01:50.353Z,4.28
2019-03-08T14:04:22.064Z,4.23
2019-03-08T14:06:53.796Z,4.30
2019-03-08T14:09:25.507Z,4.40
2019-03-08T14:11:57.377Z,4.46
2019-03-08T14:14:29.393Z,4.28
2019-03-08T14:17:01.317Z,4.36
2019-03-08T14:19:33.021Z,4.38
2019-03-08T14:22:04.991Z,4.30
2019-03-08T14:24:36.707Z,4.56
2019-03-08T14:27:08.626Z,4.41
2019-03-08T14:29:41.031Z,4.38
2019-03-08T14:32:17.227Z,4.55
2019-03-08T14:34:49.612Z,4.49
2019-03-08T14:37:22.716Z,4.51
2019-03-08T14:39:54.421Z,4.68
2019-03-08T14:42:30.939Z,4.74
2019-03-08T14:45:28.611Z,4.85
2019-03-08T14:48:01.143Z,5.16
2019-03-08T14:50:35.601Z,5.63
2019-03-08T14:53:06.343Z,5.81
2019-03-08T14:55:38.370Z,5.78
2019-03-08T14:58:10.247Z,5.82
2019-03-08T15:00:41.947Z,6.28
2019-03-08T15:03:13.720Z,6.56
2019-03-08T15:05:45.779Z,6.78
2019-03-08T15:08:19.011Z,6.68
2019-03-08T15:10:51.428Z,6.34
2019-03-08T15:13:23.976Z,6.14
2019-03-08T15:15:58.021Z,6.07
2019-03-08T15:18:31.218Z,6.03
2019-03-08T15:21:03.134Z,5.83
2019-03-08T15:23:35.152Z,5.96
2019-03-08T15:26:06.955Z,5.74
2019-03-08T15:28:38.722Z,5.85
2019-03-08T15:31:10.953Z,5.73
2019-03-08T15:33:42.655Z,5.67
2019-03-08T15:36:14.370Z,5.85
2019-03-08T15:38:46.312Z,6.03
2019-03-08T15:41:21.464Z,6.36
2019-03-08T15:43:52.705Z,6.90
2019-03-08T15:46:26.676Z,7.42
2019-03-08T15:48:57.945Z,7.51
2019-03-08T15:51:29.724Z,7.54
2019-03-08T15:54:01.508Z,7.60
2019-03-08T15:56:33.362Z,7.44
2019-03-08T15:59:05.207Z,7.70
2019-03-08T16:01:36.903Z,7.97
2019-03-08T16:04:12.075Z,8.17
2019-03-08T16:06:43.807Z,8.36
2019-03-08T16:09:15.603Z,8.32
2019-03-08T16:11:47.370Z,8.48
2019-03-08T16:14:19.146Z,8.54
2019-03-08T16:16:50.846Z,8.54
2019-03-08T16:19:24.809Z,8.94
2019-03-08T16:21:56.032Z,8.40
2019-03-08T16:24:31.134Z,8.03
2019-03-08T16:27:02.461Z,7.77
2019-03-08T16:29:34.409Z,8.30
2019-03-08T16:32:31.345Z,8.19
2019-03-08T16:35:03.103Z,8.22
2019-03-08T16:37:46.357Z,8.37
2019-03-08T16:40:42.910Z,7.87
2019-03-08T16:43:22.786Z,7.43
2019-03-08T16:46:16.127Z,7.20
2019-03-08T16:49:21.185Z,7.25
2019-03-08T16:52:05.771Z,7.18
2019-03-08T16:54:47.018Z,7.48
2019-03-08T16:57:31.872Z,7.17
2019-03-08T17:00:18.707Z,7.10
2019-03-08T17:03:12.188Z,6.64
2019-03-08T17:05:54.807Z,6.85
2019-03-08T17:08:45.440Z,6.82
2019-03-08T17:11:42.518Z,6.66
2019-03-08T17:14:45.587Z,6.53
2019-03-08T17:17:35.466Z,6.41
2019-03-08T17:20:18.622Z,6.41
2019-03-08T17:23:21.111Z,6.33
2019-03-08T17:25:59.324Z,6.24
2019-03-08T17:28:49.045Z,6.21
2019-03-08T17:31:28.168Z,6.10
2019-03-08T17:34:18.788Z,5.90
2019-03-08T17:36:59.283Z,5.90
2019-03-08T17:39:49.888Z,5.76
2019-03-08T17:42:47.178Z,5.61
2019-03-08T17:45:56.072Z,5.32
2019-03-08T17:49:04.776Z,5.22
2019-03-08T17:51:54.175Z,5.10
2019-03-08T17:54:37.199Z,5.05
2019-03-08T17:57:33.880Z,5.02
2019-03-08T18:00:13.980Z,4.92
2019-03-08T18:02:56.238Z,4.78
2019-03-08T18:05:37.782Z,4.85
2019-03-08T18:08:28.203Z,4.83
2019-03-08T18:11:26.875Z,4.63
2019-03-08T18:14:05.688Z,4.36
2019-03-08T18:16:46.351Z,4.23
2019-03-08T18:19:37.010Z,3.99
2019-03-08T18:22:26.377Z,3.90
2019-03-08T18:25:11.029Z,3.90
2019-03-08T18:28:13.724Z,3.89
2019-03-08T18:31:07.182Z,3.81
2019-03-08T18:33:43.868Z,3.78
2019-03-08T18:36:37.955Z,3.65
2019-03-08T18:39:44.132Z,3.55
2019-03-08T18:42:28.048Z,3.32
2019-03-08T18:45:09.670Z,3.23
2019-03-08T18:48:03.428Z,3.23
2019-03-08T18:50:52.600Z,3.06
2019-03-08T18:53:40.111Z,3.11
2019-03-08T18:56:29.498Z,3.02
2019-03-08T18:59:26.304Z,2.96
2019-03-08T19:02:15.453Z,2.87
2019-03-08T19:05:21.057Z,2.84
2019-03-08T19:08:14.932Z,2.79
2019-03-08T19:10:58.724Z,2.76
2019-03-08T19:13:48.087Z,2.78
2019-03-08T19:16:30.350Z,2.83
2019-03-08T19:19:21.183Z,2.92
2019-03-08T19:22:10.201Z,2.89
2019-03-08T19:24:55.152Z,2.84
2019-03-08T19:27:52.477Z,2.75
2019-03-08T19:30:52.023Z,2.72
2019-03-08T19:33:49.928Z,2.63
2019-03-08T19:36:30.784Z,2.71
2019-03-08T19:39:10.382Z,2.66
2019-03-08T19:42:16.357Z,2.66
2019-03-08T19:45:14.062Z,2.60
2019-03-08T19:48:07.088Z,2.55
2019-03-08T19:51:00.653Z,2.51
2019-03-08T19:54:03.904Z,2.37
2019-03-08T19:56:42.536Z,2.23
2019-03-08T19:59:34.856Z,2.23
2019-03-08T20:02:24.402Z,2.18
2019-03-08T20:05:03.193Z,2.19
2019-03-08T20:08:12.908Z,2.13
2019-03-08T20:10:56.389Z,2.15
2019-03-08T20:14:01.949Z,2.10
2019-03-08T20:17:02.014Z,2.06
2019-03-08T20:19:49.900Z,2.09
2019-03-08T20:22:39.147Z,2.11
2019-03-08T20:25:28.012Z,2.13
2019-03-08T20:28:12.328Z,2.14
2019-03-08T20:30:51.759Z,2.18
2019-03-08T20:33:48.787Z,2.20
2019-03-08T20:36:37.873Z,2.28
2019-03-08T20:39:21.900Z,2.37
2019-03-08T20:41:58.498Z,2.30
2019-03-08T20:44:38.101Z,2.22
2019-03-08T20:47:15.135Z,2.19
2019-03-08T20:49:46.941Z,2.17
2019-03-08T20:52:18.960Z,2.19
2019-03-08T20:54:50.756Z,2.13
2019-03-08T20:57:22.586Z,2.14
2019-03-08T20:59:54.446Z,2.12
2019-03-08T21:02:26.333Z,2.07
2019-03-08T21:04:58.366Z,1.99
2019-03-08T21:07:30.084Z,2.07
2019-03-08T21:10:01.854Z,2.07
2019-03-08T21:12:33.809Z,2.11
2019-03-08T21:15:07.866Z,2.14
2019-03-08T21:17:39.754Z,2.14
2019-03-08T21:20:12.589Z,2.19
2019-03-08T21:22:44.539Z,2.15
2019-03-08T21:25:16.822Z,2.17
2019-03-08T21:27:48.694Z,2.19
2019-03-08T21:30:20.823Z,2.18
2019-03-08T21:32:52.579Z,2.19
2019-03-08T21:35:24.373Z,2.21
2019-03-08T21:37:56.147Z,2.23
2019-03-08T21:40:28.053Z,2.21
2019-03-08T21:42:59.837Z,2.12
2019-03-08T21:45:31.652Z,2.16
2019-03-08T21:48:03.587Z,2.14
2019-03-08T21:50:35.551Z,2.19
2019-03-08T21:53:07.498Z,2.17
2019-03-08T21:55:39.237Z,2.15
2019-03-08T21:58:11.739Z,2.12
2019-03-08T22:00:43.601Z,2.16
2019-03-08T22:03:15.400Z,2.14
2019-03-08T22:05:47.154Z,2.16
2019-03-08T22:08:18.978Z,2.16
2019-03-08T22:11:13.904Z,2.22
2019-03-08T22:13:45.632Z,2.24
2019-03-08T22:16:17.362Z,2.25
2019-03-08T22:18:49.327Z,2.26
2019-03-08T22:21:21.200Z,2.25
2019-03-08T22:23:52.900Z,2.23
2019-03-08T22:26:24.797Z,2.29
2019-03-08T22:28:56.767Z,2.34
2019-03-08T22:31:28.737Z,2.40
2019-03-08T22:34:02.067Z,2.47
2019-03-08T22:36:33.823Z,2.47
2019-03-08T22:39:07.480Z,2.45
2019-03-08T22:41:39.663Z,2.39
2019-03-08T22:44:11.374Z,2.33
2019-03-08T22:46:45.705Z,2.33
2019-03-08T22:49:16.765Z,2.32
2019-03-08T22:51:48.483Z,2.32
2019-03-08T22:54:20.265Z,2.38
2019-03-08T22:56:51.981Z,2.42
2019-03-08T22:59:23.692Z,2.44
2019-03-08T23:02:03.197Z,2.45
2019-03-08T23:04:35.058Z,2.47
2019-03-08T23:07:07.240Z,2.58
2019-03-08T23:09:39.218Z,2.59
2019-03-08T23:12:11.080Z,2.63
2019-03-08T23:14:42.788Z,2.67
2019-03-08T23:17:14.578Z,2.67
2019-03-08T23:19:46.328Z,2.76
2019-03-08T23:22:18.041Z,2.85
2019-03-08T23:24:50.017Z,2.99
2019-03-08T23:27:46.600Z,3.23
2019-03-08T23:30:24.710Z,3.08
2019-03-08T23:32:57.157Z,3.28
2019-03-08T23:35:28.852Z,3.29
2019-03-08T23:38:01.718Z,3.39
2019-03-08T23:40:33.473Z,3.38
2019-03-08T23:43:05.348Z,3.21
2019-03-08T23:45:37.067Z,3.38
2019-03-08T23:48:08.780Z,3.34
2019-03-08T23:50:40.583Z,3.42
2019-03-08T23:53:12.563Z,3.39
2019-03-08T23:55:44.529Z,3.53
2019-03-08T23:58:16.235Z,3.57
